createdAt,value
2022-07-28T00:01:19.065Z,0
2022-07-28T00:03:45.146Z,0
2022-07-28T00:06:11.265Z,0
2022-07-28T00:08:37.346Z,0
2022-07-28T00:11:03.454Z,0
2022-07-28T00:13:28.564Z,0
2022-07-28T00:15:54.645Z,0
2022-07-28T00:18:20.734Z,0
2022-07-28T00:20:46.857Z,0
2022-07-28T00:23:12.927Z,0
2022-07-28T00:25:39.021Z,0
2022-07-28T00:28:05.122Z,0
2022-07-28T00:30:30.252Z,0
2022-07-28T00:32:55.366Z,0
2022-07-28T00:35:20.498Z,0
2022-07-28T00:37:45.577Z,0
2022-07-28T00:40:10.711Z,0
2022-07-28T00:42:35.821Z,0
2022-07-28T00:45:01.912Z,0
2022-07-28T00:47:28.008Z,0
2022-07-28T00:49:54.106Z,0
2022-07-28T00:52:20.194Z,0
2022-07-28T00:54:46.292Z,0
2022-07-28T00:57:12.382Z,0
2022-07-28T00:59:38.489Z,0
2022-07-28T01:02:04.573Z,0
2022-07-28T01:04:30.684Z,0
2022-07-28T01:06:56.767Z,0
2022-07-28T01:09:22.866Z,0
2022-07-28T01:11:48.974Z,0
2022-07-28T01:14:14.067Z,0
2022-07-28T01:16:40.171Z,0
2022-07-28T01:19:06.262Z,0
2022-07-28T01:21:32.362Z,0
2022-07-28T01:23:58.464Z,0
2022-07-28T01:26:24.564Z,0
2022-07-28T01:28:50.645Z,0
2022-07-28T01:31:15.766Z,0
2022-07-28T01:33:40.874Z,0
2022-07-28T01:36:06.061Z,0
2022-07-28T01:38:31.111Z,0
2022-07-28T01:40:57.213Z,0
2022-07-28T01:43:23.328Z,0
2022-07-28T01:45:49.413Z,0
2022-07-28T01:48:15.524Z,0
2022-07-28T01:50:41.589Z,0
2022-07-28T01:53:07.686Z,0
2022-07-28T01:55:33.784Z,0
2022-07-28T01:57:59.891Z,0
2022-07-28T02:00:25.976Z,0
2022-07-28T02:02:52.073Z,0
2022-07-28T02:05:18.176Z,0
2022-07-28T02:07:44.268Z,0
2022-07-28T02:10:09.380Z,0
2022-07-28T02:12:35.465Z,0
2022-07-28T02:15:01.585Z,0
2022-07-28T02:17:27.665Z,0
2022-07-28T02:19:53.795Z,0
2022-07-28T02:22:19.863Z,0
2022-07-28T02:24:45.944Z,0
2022-07-28T02:27:11.061Z,0
2022-07-28T02:29:36.174Z,0
2022-07-28T02:32:02.270Z,0
2022-07-28T02:34:27.415Z,0
2022-07-28T02:36:52.517Z,0
2022-07-28T02:39:18.606Z,0
2022-07-28T02:41:44.704Z,0
2022-07-28T02:44:10.788Z,0
2022-07-28T02:46:36.901Z,0
2022-07-28T02:49:02.986Z,0
2022-07-28T02:51:29.099Z,0
2022-07-28T02:53:55.170Z,0
2022-07-28T02:56:21.268Z,0
2022-07-28T02:58:47.374Z,0
2022-07-28T03:01:13.469Z,0
2022-07-28T03:03:39.568Z,0
2022-07-28T03:06:05.651Z,0
2022-07-28T03:08:30.837Z,0
2022-07-28T03:10:56.869Z,0
2022-07-28T03:13:22.966Z,0
2022-07-28T03:15:49.047Z,4
2022-07-28T03:18:15.164Z,0
2022-07-28T03:20:41.236Z,0
2022-07-28T03:23:07.358Z,4
2022-07-28T03:25:32.444Z,8
2022-07-28T03:27:57.563Z,12
2022-07-28T03:30:22.691Z,16
2022-07-28T03:32:47.805Z,24
2022-07-28T03:35:13.887Z,32
2022-07-28T03:37:39.999Z,44
2022-07-28T03:40:06.086Z,56
2022-07-28T03:42:32.178Z,80
2022-07-28T03:44:58.275Z,104
2022-07-28T03:47:24.370Z,132
2022-07-28T03:52:16.560Z,196
2022-07-28T03:54:42.637Z,236
2022-07-28T03:57:08.749Z,281
2022-07-28T03:59:34.848Z,337
2022-07-28T04:02:00.946Z,413
2022-07-28T04:04:26.058Z,489
2022-07-28T04:06:52.147Z,570
2022-07-28T04:09:18.243Z,642
2022-07-28T04:11:44.348Z,702
2022-07-28T04:14:10.418Z,754
2022-07-28T04:16:36.504Z,799
2022-07-28T04:19:02.607Z,859
2022-07-28T04:21:28.693Z,947
2022-07-28T04:23:53.823Z,1060
2022-07-28T04:26:18.947Z,1140
2022-07-28T04:28:45.022Z,1228
2022-07-28T04:31:11.122Z,1349
2022-07-28T04:33:37.205Z,1449
2022-07-28T04:36:03.319Z,1578
2022-07-28T04:38:29.409Z,1754
2022-07-28T04:40:55.492Z,1875
2022-07-28T04:43:21.591Z,2011
2022-07-28T04:45:47.704Z,2092
2022-07-28T04:48:13.771Z,2244
2022-07-28T04:53:05.998Z,2626
2022-07-28T04:55:32.067Z,2782
2022-07-28T04:57:57.178Z,2995
2022-07-28T05:00:23.270Z,3188
2022-07-28T05:02:49.384Z,3236
2022-07-28T05:05:15.458Z,3220
2022-07-28T05:07:41.567Z,3196
2022-07-28T05:10:07.652Z,2935
2022-07-28T05:12:33.780Z,2923
2022-07-28T05:14:59.857Z,3019
2022-07-28T05:17:24.967Z,2923
2022-07-28T05:19:50.072Z,2875
2022-07-28T05:22:15.194Z,2879
2022-07-28T05:24:40.328Z,2911
2022-07-28T05:27:06.427Z,2955
2022-07-28T05:29:32.505Z,2979
2022-07-28T05:31:58.613Z,3148
2022-07-28T05:34:24.697Z,3521
2022-07-28T05:36:50.792Z,3875
2022-07-28T05:39:16.892Z,4256
2022-07-28T05:41:42.984Z,4413
2022-07-28T05:44:09.068Z,4469
2022-07-28T05:46:35.169Z,4212
2022-07-28T05:49:01.280Z,3967
2022-07-28T05:51:27.348Z,3485
2022-07-28T05:53:53.464Z,2951
2022-07-28T05:56:18.566Z,2806
2022-07-28T05:58:44.667Z,2835
2022-07-28T06:01:10.759Z,2819
2022-07-28T06:03:36.849Z,2999
2022-07-28T06:06:02.947Z,3148
2022-07-28T06:08:29.054Z,2915
2022-07-28T06:10:55.139Z,3076
2022-07-28T06:13:20.267Z,3088
2022-07-28T06:15:45.368Z,3365
2022-07-28T06:18:10.486Z,3417
2022-07-28T06:20:35.604Z,3457
2022-07-28T06:23:01.708Z,3481
2022-07-28T06:25:27.801Z,3557
2022-07-28T06:27:53.891Z,3610
2022-07-28T06:30:20.009Z,3658
2022-07-28T06:32:46.082Z,3626
2022-07-28T06:35:12.174Z,3738
2022-07-28T06:37:38.263Z,3879
2022-07-28T06:40:04.362Z,3975
2022-07-28T06:42:30.467Z,3698
2022-07-28T06:44:56.573Z,3814
2022-07-28T06:47:22.687Z,3642
2022-07-28T06:49:48.744Z,3814
2022-07-28T06:52:13.867Z,3863
2022-07-28T06:54:39.946Z,3871
2022-07-28T06:57:06.058Z,3875
2022-07-28T06:59:32.156Z,3867
2022-07-28T07:01:58.234Z,3891
2022-07-28T07:04:24.326Z,3859
2022-07-28T07:06:50.423Z,3843
2022-07-28T07:09:16.529Z,3810
2022-07-28T07:11:41.655Z,3790
2022-07-28T07:14:06.755Z,3798
2022-07-28T07:16:31.886Z,3806
2022-07-28T07:18:56.995Z,3810
2022-07-28T07:21:23.078Z,3798
2022-07-28T07:23:49.195Z,3806
2022-07-28T07:26:14.303Z,3847
2022-07-28T07:28:39.410Z,3875
2022-07-28T07:31:05.531Z,3891
2022-07-28T07:33:31.606Z,3907
2022-07-28T07:35:57.706Z,3923
2022-07-28T07:38:23.800Z,3943
2022-07-28T07:40:49.899Z,3975
2022-07-28T07:43:15.993Z,3999
2022-07-28T07:45:42.086Z,4015
2022-07-28T07:48:08.185Z,4023
2022-07-28T07:50:34.263Z,4039
2022-07-28T07:53:00.377Z,4051
2022-07-28T07:55:26.472Z,4071
2022-07-28T07:57:52.549Z,4096
2022-07-28T08:00:17.670Z,4112
2022-07-28T08:02:43.775Z,4140
2022-07-28T08:05:09.862Z,4164
2022-07-28T08:07:35.951Z,4196
2022-07-28T08:10:02.068Z,4236
2022-07-28T08:12:28.155Z,4268
2022-07-28T08:14:54.227Z,4268
2022-07-28T08:17:19.371Z,4272
2022-07-28T08:19:44.480Z,4300
2022-07-28T08:22:09.609Z,4308
2022-07-28T08:24:34.710Z,4316
2022-07-28T08:27:00.802Z,4324
2022-07-28T08:29:26.899Z,4361
2022-07-28T08:31:53.006Z,4385
2022-07-28T08:34:19.091Z,4413
2022-07-28T08:36:45.185Z,4449
2022-07-28T08:39:11.281Z,4481
2022-07-28T08:41:36.389Z,4505
2022-07-28T08:44:02.500Z,4537
2022-07-28T08:46:28.572Z,4577
2022-07-28T08:48:54.674Z,4654
2022-07-28T08:51:20.782Z,4706
2022-07-28T08:53:46.870Z,4577
2022-07-28T08:56:12.980Z,4650
2022-07-28T08:58:39.083Z,4601
2022-07-28T09:01:05.154Z,4646
2022-07-28T09:03:31.242Z,4975
2022-07-28T09:05:57.359Z,5172
2022-07-28T09:08:23.459Z,5300
2022-07-28T09:10:49.529Z,5393
2022-07-28T09:13:14.731Z,5525
2022-07-28T09:15:39.767Z,5746
2022-07-28T09:18:05.859Z,5999
2022-07-28T09:20:31.961Z,6280
2022-07-28T09:22:58.060Z,6497
2022-07-28T09:25:24.170Z,7147
2022-07-28T09:27:50.253Z,7682
2022-07-28T09:30:16.339Z,7890
2022-07-28T09:32:42.449Z,7714
2022-07-28T09:35:08.539Z,7722
2022-07-28T09:37:34.613Z,8296
2022-07-28T09:40:00.715Z,8179
2022-07-28T09:42:26.826Z,7930
2022-07-28T09:44:52.907Z,7545
2022-07-28T09:47:18.018Z,7039
2022-07-28T09:49:44.111Z,7858
2022-07-28T09:52:10.209Z,9360
2022-07-28T09:54:36.312Z,9195
2022-07-28T09:57:02.402Z,9039
2022-07-28T09:59:28.496Z,8790
2022-07-28T10:01:54.595Z,8569
2022-07-28T10:04:20.773Z,8428
2022-07-28T10:06:44.828Z,8139
2022-07-28T10:09:10.931Z,8115
2022-07-28T10:11:37.023Z,8874
2022-07-28T10:14:03.106Z,9031
2022-07-28T10:16:29.207Z,9380
2022-07-28T10:18:55.315Z,9320
2022-07-28T10:21:21.395Z,9468
2022-07-28T10:23:47.508Z,9376
2022-07-28T10:26:13.594Z,10432
2022-07-28T10:28:39.693Z,10348
2022-07-28T10:31:05.779Z,11147
2022-07-28T10:33:31.870Z,12998
2022-07-28T10:35:57.962Z,12520
2022-07-28T10:38:23.131Z,12328
2022-07-28T10:40:49.171Z,11091
2022-07-28T10:43:15.266Z,12035
2022-07-28T10:45:41.371Z,12127
2022-07-28T10:48:07.478Z,11922
2022-07-28T10:50:33.577Z,13344
2022-07-28T10:52:59.654Z,13067
2022-07-28T10:55:24.775Z,12906
2022-07-28T10:57:49.884Z,13994
2022-07-28T11:00:15.018Z,12701
2022-07-28T11:02:40.115Z,13512
2022-07-28T11:05:05.235Z,14167
2022-07-28T11:07:30.356Z,15765
2022-07-28T11:09:56.471Z,14259
2022-07-28T11:12:22.551Z,14540
2022-07-28T11:14:48.652Z,15934
2022-07-28T11:17:14.733Z,13898
2022-07-28T11:19:40.824Z,16616
2022-07-28T11:22:06.961Z,17444
2022-07-28T11:24:33.031Z,18504
2022-07-28T11:26:59.130Z,15227
2022-07-28T11:29:25.217Z,12030
2022-07-28T11:31:51.326Z,11769
2022-07-28T11:34:17.414Z,11219
2022-07-28T11:36:43.536Z,12629
2022-07-28T11:39:08.637Z,14930
2022-07-28T11:41:34.725Z,18440
2022-07-28T11:44:00.806Z,17379
2022-07-28T11:46:26.904Z,20817
2022-07-28T11:48:52.990Z,20239
2022-07-28T11:51:19.100Z,21941
2022-07-28T11:53:45.201Z,21684
2022-07-28T11:56:10.311Z,23162
2022-07-28T11:58:35.425Z,28174
2022-07-28T12:01:00.561Z,78514
2022-07-28T12:03:25.657Z,51818
2022-07-28T12:05:51.745Z,27306
2022-07-28T12:08:17.840Z,27467
2022-07-28T12:10:43.960Z,35434
2022-07-28T12:13:10.049Z,29394
2022-07-28T12:15:36.137Z,65086
2022-07-28T12:18:02.268Z,40349
2022-07-28T12:20:28.328Z,49409
2022-07-28T12:25:20.515Z,72185
2022-07-28T12:27:46.620Z,64636
2022-07-28T12:30:12.720Z,57311
2022-07-28T12:32:38.804Z,92296
2022-07-28T12:35:03.977Z,43305
2022-07-28T12:37:30.012Z,35209
2022-07-28T12:39:56.105Z,75655
2022-07-28T12:42:22.217Z,44622
2022-07-28T12:44:48.295Z,108198
2022-07-28T12:47:14.398Z,50180
2022-07-28T12:49:40.496Z,84875
2022-07-28T12:52:06.606Z,87284
2022-07-28T12:54:31.718Z,68877
2022-07-28T12:56:56.817Z,67881
2022-07-28T12:59:22.911Z,81598
2022-07-28T13:01:49.023Z,89694
2022-07-28T13:04:15.125Z,107845
2022-07-28T13:06:41.202Z,27627
2022-07-28T13:09:07.309Z,25861
2022-07-28T13:11:33.398Z,31707
2022-07-28T13:13:59.495Z,46838
2022-07-28T13:16:25.602Z,100424
2022-07-28T13:18:51.703Z,50083
2022-07-28T13:21:17.791Z,80699
2022-07-28T13:23:43.893Z,66499
2022-07-28T13:26:09.983Z,48123
2022-07-28T13:28:35.091Z,39771
2022-07-28T13:31:01.206Z,109772
2022-07-28T13:33:27.299Z,25636
2022-07-28T13:35:53.381Z,43530
2022-07-28T13:38:19.480Z,28623
2022-07-28T13:40:45.573Z,28366
2022-07-28T13:43:11.677Z,25764
2022-07-28T13:45:36.799Z,44782
2022-07-28T13:48:01.934Z,37137
2022-07-28T13:50:27.055Z,107170
2022-07-28T13:52:52.139Z,108616
2022-07-28T13:55:18.240Z,98046
2022-07-28T13:57:43.361Z,100360
2022-07-28T14:00:08.477Z,99332
2022-07-28T14:02:34.599Z,78321
2022-07-28T14:05:00.684Z,35113
2022-07-28T14:07:26.797Z,23708
2022-07-28T14:09:52.869Z,31515
2022-07-28T14:12:18.977Z,25218
2022-07-28T14:14:45.061Z,93196
2022-07-28T14:17:11.158Z,86610
2022-07-28T14:19:37.247Z,57858
2022-07-28T14:22:03.359Z,24576
2022-07-28T14:24:29.441Z,59110
2022-07-28T14:26:55.548Z,68652
2022-07-28T14:29:21.638Z,81662
2022-07-28T14:31:46.778Z,88730
2022-07-28T14:34:12.856Z,88891
2022-07-28T14:36:38.968Z,85935
2022-07-28T14:39:05.061Z,74980
2022-07-28T14:41:31.151Z,71864
2022-07-28T14:43:57.242Z,62451
2022-07-28T14:46:23.346Z,67399
2022-07-28T14:48:48.469Z,79157
2022-07-28T14:51:13.583Z,76940
2022-07-28T14:53:39.689Z,76073
2022-07-28T14:56:05.786Z,67688
2022-07-28T14:58:31.884Z,63833
2022-07-28T15:00:57.972Z,61520
2022-07-28T15:03:24.083Z,73824
2022-07-28T15:05:50.175Z,74563
2022-07-28T15:08:16.267Z,73856
2022-07-28T15:10:42.375Z,68073
2022-07-28T15:13:08.459Z,71093
2022-07-28T15:15:34.552Z,68427
2022-07-28T15:18:00.654Z,66435
2022-07-28T15:20:26.740Z,69712
2022-07-28T15:22:51.868Z,72635
2022-07-28T15:25:17.947Z,64797
2022-07-28T15:27:44.055Z,55577
2022-07-28T15:30:10.161Z,55030
2022-07-28T15:32:36.268Z,62901
2022-07-28T15:35:02.357Z,57279
2022-07-28T15:37:28.455Z,56412
2022-07-28T15:39:53.573Z,53649
2022-07-28T15:42:18.686Z,37233
2022-07-28T15:44:43.810Z,53456
2022-07-28T15:47:08.952Z,55962
2022-07-28T15:49:34.064Z,48380
2022-07-28T15:51:59.180Z,50404
2022-07-28T15:54:25.275Z,49216
2022-07-28T15:56:51.362Z,48348
2022-07-28T15:59:17.480Z,44172
2022-07-28T16:01:43.556Z,48220
2022-07-28T16:04:09.675Z,40124
2022-07-28T16:06:35.748Z,34181
2022-07-28T16:09:01.852Z,22776
2022-07-28T16:11:27.975Z,19146
2022-07-28T16:13:54.077Z,26856
2022-07-28T16:16:20.178Z,21170
2022-07-28T16:18:46.254Z,33153
2022-07-28T16:21:12.338Z,35113
2022-07-28T16:23:37.466Z,29298
2022-07-28T16:26:03.590Z,20046
2022-07-28T16:28:29.645Z,20463
2022-07-28T16:30:55.755Z,27884
2022-07-28T16:33:21.845Z,35530
2022-07-28T16:35:47.956Z,34599
2022-07-28T16:38:14.036Z,35852
2022-07-28T16:40:39.167Z,30069
2022-07-28T16:43:04.274Z,24158
2022-07-28T16:45:29.397Z,20688
2022-07-28T16:47:54.500Z,29812
2022-07-28T16:50:19.624Z,32896
2022-07-28T16:52:45.713Z,32510
2022-07-28T16:55:11.821Z,29491
2022-07-28T16:57:37.927Z,24993
2022-07-28T17:00:04.033Z,27788
2022-07-28T17:02:30.113Z,19660
2022-07-28T17:04:56.210Z,23644
2022-07-28T17:07:22.317Z,26792
2022-07-28T17:09:48.433Z,22969
2022-07-28T17:12:14.507Z,20785
2022-07-28T17:14:40.604Z,19114
2022-07-28T17:17:06.702Z,21074
2022-07-28T17:19:32.789Z,16962
2022-07-28T17:21:57.897Z,16159
2022-07-28T17:24:24.001Z,15355
2022-07-28T17:26:50.082Z,17733
2022-07-28T17:29:16.185Z,11472
2022-07-28T17:31:42.287Z,15420
2022-07-28T17:34:08.374Z,7963
2022-07-28T17:36:33.496Z,8625
2022-07-28T17:38:58.622Z,6790
2022-07-28T17:41:24.704Z,6067
2022-07-28T17:43:50.829Z,5589
2022-07-28T17:46:16.901Z,5232
2022-07-28T17:48:42.986Z,4497
2022-07-28T17:51:09.096Z,3224
2022-07-28T17:53:35.221Z,2594
2022-07-28T17:56:01.291Z,2232
2022-07-28T17:58:27.382Z,1831
2022-07-28T18:00:53.487Z,1542
2022-07-28T18:03:19.567Z,1385
2022-07-28T18:05:45.675Z,1401
2022-07-28T18:08:11.780Z,1397
2022-07-28T18:10:36.868Z,1397
2022-07-28T18:13:02.969Z,1409
2022-07-28T18:15:29.077Z,1461
2022-07-28T18:17:55.165Z,1481
2022-07-28T18:20:21.276Z,1417
2022-07-28T18:22:47.372Z,1345
2022-07-28T18:25:13.465Z,1272
2022-07-28T18:27:38.581Z,1192
2022-07-28T18:30:03.689Z,1120
2022-07-28T18:32:28.810Z,1064
2022-07-28T18:34:53.913Z,983
2022-07-28T18:37:19.036Z,903
2022-07-28T18:39:44.152Z,835
2022-07-28T18:42:10.263Z,775
2022-07-28T18:44:36.352Z,742
2022-07-28T18:47:02.447Z,698
2022-07-28T18:49:28.559Z,598
2022-07-28T18:51:54.645Z,514
2022-07-28T18:54:20.726Z,421
2022-07-28T18:56:46.822Z,333
2022-07-28T18:59:12.921Z,261
2022-07-28T19:01:39.017Z,200
2022-07-28T19:04:05.116Z,156
2022-07-28T19:06:31.207Z,124
2022-07-28T19:08:57.295Z,88
2022-07-28T19:11:22.415Z,64
2022-07-28T19:13:48.507Z,48
2022-07-28T19:16:14.604Z,28
2022-07-28T19:18:40.714Z,16
2022-07-28T19:21:06.799Z,12
2022-07-28T19:23:32.888Z,8
2022-07-28T19:25:58.993Z,8
2022-07-28T19:28:24.108Z,8
2022-07-28T19:30:49.209Z,4
2022-07-28T19:33:15.319Z,4
2022-07-28T19:35:40.439Z,0
2022-07-28T19:38:05.557Z,0
2022-07-28T19:40:31.654Z,0
2022-07-28T19:42:57.731Z,0
2022-07-28T19:45:23.841Z,0
2022-07-28T19:47:49.951Z,0
2022-07-28T19:50:16.037Z,0
2022-07-28T19:52:42.119Z,0
2022-07-28T19:55:08.221Z,0
2022-07-28T19:57:34.302Z,0
2022-07-28T20:00:00.415Z,0
2022-07-28T20:02:26.515Z,0
2022-07-28T20:04:52.595Z,0
2022-07-28T20:07:18.690Z,0
2022-07-28T20:09:43.816Z,0
2022-07-28T20:12:09.917Z,0
2022-07-28T20:14:36.004Z,0
2022-07-28T20:17:02.090Z,0
2022-07-28T20:19:28.198Z,0
2022-07-28T20:21:54.283Z,0
2022-07-28T20:24:20.389Z,0
2022-07-28T20:26:45.501Z,0
2022-07-28T20:29:10.614Z,0
2022-07-28T20:31:35.748Z,0
2022-07-28T20:34:00.851Z,0
2022-07-28T20:36:26.931Z,0
2022-07-28T20:38:53.042Z,0
2022-07-28T20:41:19.129Z,0
2022-07-28T20:43:45.252Z,0
2022-07-28T20:46:11.329Z,0
2022-07-28T20:48:37.407Z,0
2022-07-28T20:51:03.508Z,0
2022-07-28T20:53:29.613Z,0
2022-07-28T20:55:55.699Z,0
2022-07-28T20:58:21.793Z,0
2022-07-28T21:00:47.899Z,0
2022-07-28T21:03:13.976Z,0
2022-07-28T21:05:39.098Z,0
2022-07-28T21:08:05.188Z,0
2022-07-28T21:10:31.293Z,0
2022-07-28T21:12:57.391Z,0
2022-07-28T21:15:23.493Z,0
2022-07-28T21:17:49.586Z,0
2022-07-28T21:22:41.782Z,0
2022-07-28T21:25:06.904Z,0
2022-07-28T21:27:31.995Z,0
2022-07-28T21:32:24.187Z,0
2022-07-28T21:34:50.277Z,0
2022-07-28T21:37:16.391Z,0
2022-07-28T21:39:42.472Z,0
2022-07-28T21:42:08.575Z,0
2022-07-28T21:44:34.660Z,0
2022-07-28T21:47:00.769Z,0
2022-07-28T21:49:26.846Z,0
2022-07-28T21:51:52.951Z,0
2022-07-28T21:54:19.040Z,0
2022-07-28T21:56:45.151Z,0
2022-07-28T21:59:10.255Z,0
2022-07-28T22:01:36.349Z,0
2022-07-28T22:04:02.439Z,0
2022-07-28T22:06:28.546Z,0
2022-07-28T22:08:54.628Z,0
2022-07-28T22:11:20.732Z,0
2022-07-28T22:13:46.825Z,0
2022-07-28T22:16:11.956Z,0
2022-07-28T22:18:37.049Z,0
2022-07-28T22:21:03.150Z,0
2022-07-28T22:23:29.241Z,0
2022-07-28T22:25:55.344Z,0
2022-07-28T22:28:21.432Z,0
2022-07-28T22:30:47.535Z,0
2022-07-28T22:33:13.619Z,0
2022-07-28T22:38:05.838Z,0
2022-07-28T22:40:31.921Z,0
2022-07-28T22:42:58.015Z,0
2022-07-28T22:45:24.105Z,0
2022-07-28T22:47:50.212Z,0
2022-07-28T22:50:15.311Z,0
2022-07-28T22:52:41.413Z,0
2022-07-28T22:55:07.515Z,0
2022-07-28T22:57:33.612Z,0
2022-07-28T22:59:59.692Z,0
2022-07-28T23:02:25.797Z,0
2022-07-28T23:04:51.883Z,0
2022-07-28T23:07:17.963Z,0
2022-07-28T23:09:43.093Z,0
2022-07-28T23:12:08.201Z,0
2022-07-28T23:14:33.322Z,0
2022-07-28T23:16:58.449Z,0
2022-07-28T23:19:23.572Z,0
2022-07-28T23:21:48.683Z,0
2022-07-28T23:24:13.798Z,0
2022-07-28T23:26:38.917Z,0
2022-07-28T23:29:04.031Z,0
2022-07-28T23:31:29.137Z,0
2022-07-28T23:33:55.243Z,0
2022-07-28T23:36:21.335Z,0
2022-07-28T23:38:47.435Z,0
2022-07-28T23:41:13.513Z,0
2022-07-28T23:43:39.622Z,0
2022-07-28T23:46:05.716Z,0
2022-07-28T23:48:31.794Z,0
2022-07-28T23:50:57.913Z,0
2022-07-28T23:53:23.992Z,0
2022-07-28T23:55:50.088Z,0
2022-07-28T23:58:16.180Z,0
